createdAt,value
2019-02-10T00:00:40.650Z,2.50
2019-02-10T00:03:12.168Z,2.83
2019-02-10T00:05:42.675Z,2.60
2019-02-10T00:08:13.027Z,2.63
2019-02-10T00:10:43.357Z,2.50
2019-02-10T00:13:42.115Z,3.13
2019-02-10T00:16:15.123Z,2.73
2019-02-10T00:18:46.087Z,2.70
2019-02-10T00:21:16.885Z,2.83
2019-02-10T00:23:47.417Z,2.57
2019-02-10T00:26:17.837Z,2.77
2019-02-10T00:28:48.325Z,2.97
2019-02-10T00:31:18.676Z,3.30
2019-02-10T00:33:50.129Z,3.27
2019-02-10T00:36:20.493Z,3.10
2019-02-10T00:38:50.200Z,3.07
2019-02-10T00:41:20.900Z,2.93
2019-02-10T00:43:51.315Z,2.90
2019-02-10T00:46:21.948Z,2.60
2019-02-10T00:48:52.296Z,3.13
2019-02-10T00:51:22.700Z,3.37
2019-02-10T00:53:53.391Z,2.73
2019-02-10T00:56:24.408Z,2.93
2019-02-10T00:58:56.943Z,3.23
2019-02-10T01:01:44.660Z,2.93
2019-02-10T01:04:15.059Z,3.10
2019-02-10T01:06:54.043Z,3.40
2019-02-10T01:09:26.424Z,3.47
2019-02-10T01:11:56.826Z,3.53
2019-02-10T01:14:26.548Z,3.60
2019-02-10T01:16:59.051Z,3.90
2019-02-10T01:19:34.684Z,4.30
2019-02-10T01:22:05.792Z,3.50
2019-02-10T01:24:36.877Z,4.13
2019-02-10T01:27:07.304Z,3.63
2019-02-10T01:29:37.978Z,3.73
2019-02-10T01:32:10.189Z,3.57
2019-02-10T01:34:40.568Z,4.00
2019-02-10T01:37:11.048Z,3.83
2019-02-10T01:39:41.405Z,3.90
2019-02-10T01:42:12.079Z,4.33
2019-02-10T01:44:42.423Z,4.80
2019-02-10T01:47:13.868Z,4.63
2019-02-10T01:49:44.220Z,3.47
2019-02-10T01:52:14.565Z,3.57
2019-02-10T01:54:46.432Z,3.33
2019-02-10T01:57:16.789Z,3.63
2019-02-10T01:59:47.218Z,4.00
2019-02-10T02:02:18.032Z,3.33
2019-02-10T02:04:48.484Z,3.30
2019-02-10T02:07:22.809Z,3.30
2019-02-10T02:09:53.299Z,3.43
2019-02-10T02:12:23.724Z,3.40
2019-02-10T02:14:54.132Z,4.20
2019-02-10T02:17:25.641Z,2.77
2019-02-10T02:19:56.008Z,2.70
2019-02-10T02:22:25.809Z,2.97
2019-02-10T02:24:57.216Z,3.00
2019-02-10T02:27:27.616Z,2.87
2019-02-10T02:29:58.090Z,2.50
2019-02-10T02:32:30.641Z,2.73
2019-02-10T02:35:01.373Z,3.13
2019-02-10T02:37:31.822Z,3.20
2019-02-10T02:40:01.600Z,3.50
2019-02-10T02:42:31.988Z,3.10
2019-02-10T02:45:01.717Z,2.60
2019-02-10T02:47:33.778Z,2.93
2019-02-10T02:50:04.374Z,2.90
2019-02-10T02:52:35.214Z,3.10
2019-02-10T02:55:06.124Z,2.80
2019-02-10T02:57:36.949Z,2.43
2019-02-10T03:00:06.972Z,2.73
2019-02-10T03:02:37.306Z,2.63
2019-02-10T03:05:08.884Z,2.80
2019-02-10T03:07:39.335Z,3.17
2019-02-10T03:10:09.953Z,2.97
2019-02-10T03:12:40.384Z,3.13
2019-02-10T03:15:11.821Z,3.43
2019-02-10T03:17:42.253Z,3.20
2019-02-10T03:20:14.083Z,2.93
2019-02-10T03:22:44.550Z,3.03
2019-02-10T03:25:14.973Z,2.70
2019-02-10T03:27:45.472Z,2.40
2019-02-10T03:30:20.159Z,3.17
2019-02-10T03:32:50.650Z,2.10
2019-02-10T03:35:21.104Z,3.80
2019-02-10T03:37:51.556Z,2.43
2019-02-10T03:40:21.998Z,2.80
2019-02-10T03:42:51.739Z,2.47
2019-02-10T03:45:22.014Z,3.27
2019-02-10T03:47:52.448Z,2.63
2019-02-10T03:50:22.851Z,3.57
2019-02-10T03:52:53.195Z,2.77
2019-02-10T03:55:23.701Z,3.93
2019-02-10T03:57:55.643Z,2.67
2019-02-10T04:00:25.456Z,2.90
2019-02-10T04:02:57.729Z,2.90
2019-02-10T04:05:30.110Z,3.17
2019-02-10T04:08:01.564Z,3.13
2019-02-10T04:10:33.083Z,3.17
2019-02-10T04:13:03.455Z,3.27
2019-02-10T04:15:33.830Z,2.47
2019-02-10T04:18:03.582Z,3.00
2019-02-10T04:20:33.861Z,3.27
2019-02-10T04:23:03.547Z,2.60
2019-02-10T04:25:33.832Z,3.27
2019-02-10T04:28:04.231Z,3.40
2019-02-10T04:30:34.592Z,2.70
2019-02-10T04:33:04.642Z,3.57
2019-02-10T04:35:36.404Z,3.27
2019-02-10T04:38:07.374Z,4.30
2019-02-10T04:40:37.771Z,3.40
2019-02-10T04:43:08.450Z,3.40
2019-02-10T04:45:38.856Z,3.87
2019-02-10T04:48:09.199Z,4.47
2019-02-10T04:50:38.881Z,3.67
2019-02-10T04:53:09.202Z,2.83
2019-02-10T04:55:39.540Z,3.30
2019-02-10T04:58:09.899Z,3.23
2019-02-10T05:00:40.227Z,3.30
2019-02-10T05:03:10.976Z,3.27
2019-02-10T05:05:41.326Z,3.40
2019-02-10T05:08:11.768Z,3.33
2019-02-10T05:10:42.108Z,4.00
2019-02-10T05:13:12.494Z,3.60
2019-02-10T05:15:42.843Z,3.53
2019-02-10T05:18:13.219Z,3.40
2019-02-10T05:20:43.837Z,3.00
2019-02-10T05:23:14.247Z,3.30
2019-02-10T05:25:44.588Z,3.37
2019-02-10T05:28:18.536Z,3.20
2019-02-10T05:30:49.011Z,3.57
2019-02-10T05:33:19.753Z,3.30
2019-02-10T05:35:50.100Z,3.67
2019-02-10T05:38:20.913Z,3.90
2019-02-10T05:40:50.679Z,3.43
2019-02-10T05:43:21.328Z,3.73
2019-02-10T05:45:53.164Z,3.73
2019-02-10T05:48:24.920Z,3.30
2019-02-10T05:50:56.174Z,3.50
2019-02-10T05:53:26.634Z,3.43
2019-02-10T05:55:57.061Z,3.67
2019-02-10T05:58:26.837Z,4.00
2019-02-10T06:01:33.998Z,4.30
2019-02-10T06:04:04.364Z,4.00
2019-02-10T06:06:35.649Z,3.53
2019-02-10T06:09:06.584Z,3.27
2019-02-10T06:11:37.321Z,4.03
2019-02-10T06:14:07.713Z,3.73
2019-02-10T06:16:38.147Z,3.33
2019-02-10T06:19:08.604Z,3.47
2019-02-10T06:21:39.038Z,3.60
2019-02-10T06:24:10.022Z,3.30
2019-02-10T06:26:40.448Z,3.17
2019-02-10T06:29:10.844Z,3.30
2019-02-10T06:31:41.212Z,3.20
2019-02-10T06:34:11.604Z,3.40
2019-02-10T06:36:42.032Z,3.33
2019-02-10T06:39:12.381Z,3.10
2019-02-10T06:41:43.103Z,4.07
2019-02-10T06:44:13.457Z,3.53
2019-02-10T06:46:43.837Z,4.13
2019-02-10T06:49:14.624Z,6.43
2019-02-10T06:51:45.012Z,9.43
2019-02-10T06:54:15.368Z,8.03
2019-02-10T06:56:45.728Z,6.47
2019-02-10T06:59:29.199Z,5.00
2019-02-10T07:02:05.011Z,4.37
2019-02-10T07:04:35.436Z,4.20
2019-02-10T07:07:05.904Z,4.00
2019-02-10T07:09:36.282Z,4.13
2019-02-10T07:12:42.476Z,4.60
2019-02-10T07:15:49.545Z,3.83
2019-02-10T07:18:55.576Z,4.30
2019-02-10T07:21:28.833Z,4.43
2019-02-10T07:24:48.586Z,4.00
2019-02-10T07:27:25.250Z,4.37
2019-02-10T07:30:35.583Z,5.30
2019-02-10T07:33:32.824Z,6.43
2019-02-10T07:36:56.492Z,7.27
2019-02-10T07:39:49.664Z,36.57
2019-02-10T07:42:51.096Z,16.43
2019-02-10T07:45:50.504Z,20.73
2019-02-10T07:48:45.743Z,9.03
2019-02-10T07:51:36.610Z,9.93
2019-02-10T07:54:18.148Z,6.83
2019-02-10T07:57:41.907Z,5.93
2019-02-10T08:00:50.642Z,7.70
2019-02-10T08:03:56.403Z,19.23
2019-02-10T08:06:39.914Z,5.57
2019-02-10T08:09:36.568Z,5.97
2019-02-10T08:12:27.578Z,7.03
2019-02-10T08:15:27.224Z,12.80
2019-02-10T08:18:54.315Z,7.03
2019-02-10T08:21:50.759Z,7.73
2019-02-10T08:25:04.868Z,6.03
2019-02-10T08:28:11.123Z,6.57
2019-02-10T08:31:07.439Z,6.87
2019-02-10T08:34:08.772Z,5.37
2019-02-10T08:37:27.385Z,5.87
2019-02-10T08:40:26.158Z,5.13
2019-02-10T08:43:40.453Z,7.80
2019-02-10T08:46:46.256Z,8.97
2019-02-10T08:50:12.629Z,7.63
2019-02-10T08:52:51.861Z,9.70
2019-02-10T08:55:19.916Z,7.00
2019-02-10T08:57:52.470Z,5.47
2019-02-10T09:00:24.204Z,6.73
2019-02-10T09:02:58.410Z,5.60
2019-02-10T09:05:30.398Z,13.57
2019-02-10T09:08:01.509Z,11.47
2019-02-10T09:10:31.956Z,7.83
2019-02-10T09:13:16.996Z,8.57
2019-02-10T09:16:07.783Z,8.87
2019-02-10T09:19:03.502Z,5.83
2019-02-10T09:21:54.657Z,6.73
2019-02-10T09:27:53.406Z,6.30
2019-02-10T09:33:38.604Z,9.80
2019-02-10T09:36:11.397Z,6.20
2019-02-10T09:39:10.808Z,7.57
2019-02-10T09:44:39.829Z,7.07
2019-02-10T09:47:13.074Z,7.50
2019-02-10T09:49:44.827Z,6.73
2019-02-10T09:52:15.653Z,9.10
2019-02-10T09:54:46.077Z,6.33
2019-02-10T09:57:31.070Z,11.27
2019-02-10T10:00:01.557Z,10.93
2019-02-10T10:02:32.368Z,8.77
2019-02-10T10:05:03.107Z,8.37
2019-02-10T10:07:34.747Z,6.67
2019-02-10T10:10:05.647Z,5.63
2019-02-10T10:12:36.449Z,9.17
2019-02-10T10:15:08.471Z,11.03
2019-02-10T10:17:38.887Z,6.73
2019-02-10T10:20:11.594Z,6.27
2019-02-10T10:22:43.016Z,6.23
2019-02-10T10:25:13.395Z,7.10
2019-02-10T10:27:44.160Z,7.87
2019-02-10T10:30:16.449Z,9.77
2019-02-10T10:32:48.513Z,8.50
2019-02-10T10:35:19.121Z,9.27
2019-02-10T10:37:49.711Z,7.07
2019-02-10T10:40:21.317Z,7.27
2019-02-10T10:42:51.756Z,11.00
2019-02-10T10:45:22.123Z,8.10
2019-02-10T10:47:52.572Z,7.97
2019-02-10T10:50:23.096Z,7.07
2019-02-10T10:52:53.969Z,6.63
2019-02-10T10:55:24.440Z,8.30
2019-02-10T10:57:55.996Z,6.73
2019-02-10T11:00:26.456Z,6.90
2019-02-10T11:02:58.941Z,7.23
2019-02-10T11:05:30.901Z,7.23
2019-02-10T11:08:01.442Z,6.00
2019-02-10T11:10:31.977Z,6.47
2019-02-10T11:13:08.948Z,7.30
2019-02-10T11:15:36.655Z,7.50
2019-02-10T11:23:00.759Z,5.13
2019-02-10T11:24:42.689Z,6.50
2019-02-10T11:35:20.228Z,6.97
2019-02-10T11:38:08.144Z,4.57
2019-02-10T11:40:38.607Z,6.87
2019-02-10T11:43:09.083Z,13.50
2019-02-10T11:45:39.460Z,12.87
2019-02-10T11:48:09.855Z,13.10
2019-02-10T11:50:40.212Z,8.67
2019-02-10T11:53:11.070Z,6.33
2019-02-10T11:55:41.503Z,5.90
2019-02-10T11:58:11.883Z,6.17
2019-02-10T12:00:42.299Z,6.37
2019-02-10T12:03:12.683Z,6.33
2019-02-10T12:05:43.131Z,7.40
2019-02-10T12:08:13.527Z,6.93
2019-02-10T12:10:43.900Z,5.67
2019-02-10T12:13:14.435Z,5.23
2019-02-10T12:15:44.997Z,4.97
2019-02-10T12:18:15.422Z,5.30
2019-02-10T12:21:00.588Z,7.83
2019-02-10T12:24:10.134Z,6.20
2019-02-10T12:26:51.411Z,7.93
2019-02-10T13:12:49.513Z,8.17
2019-02-10T13:24:54.855Z,8.37
2019-02-10T13:28:29.446Z,8.33
2019-02-10T13:35:01.284Z,9.10
2019-02-10T13:38:23.038Z,11.07
2019-02-10T13:43:47.065Z,10.60
2019-02-10T13:46:28.292Z,11.83
2019-02-10T13:49:02.454Z,12.80
2019-02-10T13:58:42.441Z,9.23
2019-02-10T14:01:22.099Z,8.00
2019-02-10T14:04:12.867Z,10.07
2019-02-10T14:06:49.707Z,9.37
2019-02-10T14:09:25.864Z,10.33
2019-02-10T14:12:18.260Z,12.40
2019-02-10T14:14:48.641Z,12.77
2019-02-10T14:17:21.600Z,12.37
2019-02-10T14:19:51.951Z,26.77
2019-02-10T14:22:22.822Z,40.00
2019-02-10T14:24:53.299Z,20.40
2019-02-10T14:27:24.255Z,28.73
2019-02-10T14:29:55.677Z,12.37
2019-02-10T14:32:26.016Z,27.87
2019-02-10T14:34:58.929Z,16.50
2019-02-10T14:37:28.700Z,20.60
2019-02-10T14:39:58.327Z,14.23
2019-02-10T14:42:27.999Z,20.00
2019-02-10T14:44:58.328Z,13.77
2019-02-10T14:47:28.086Z,13.27
2019-02-10T14:49:57.766Z,10.83
2019-02-10T14:52:28.099Z,14.03
2019-02-10T14:54:58.528Z,9.50
2019-02-10T14:57:28.879Z,7.87
2019-02-10T15:00:08.568Z,9.17
2019-02-10T15:02:39.412Z,8.63
2019-02-10T15:05:13.052Z,7.37
2019-02-10T15:07:43.472Z,8.17
2019-02-10T15:10:14.800Z,8.47
2019-02-10T15:15:33.433Z,8.70
2019-02-10T15:18:07.927Z,10.27
2019-02-10T15:26:53.968Z,16.40
2019-02-10T15:29:27.733Z,13.90
2019-02-10T15:38:00.034Z,10.10
2019-02-10T15:40:30.495Z,9.53
2019-02-10T15:43:03.393Z,9.87
2019-02-10T15:45:37.681Z,9.77
2019-02-10T15:48:09.576Z,10.00
2019-02-10T15:51:08.966Z,11.90
2019-02-10T16:08:21.037Z,18.20
2019-02-10T16:10:58.300Z,13.07
2019-02-10T16:13:27.521Z,13.37
2019-02-10T16:25:09.344Z,17.17
2019-02-10T16:27:40.896Z,18.63
2019-02-10T16:30:22.957Z,20.67
2019-02-10T16:32:55.005Z,21.43
2019-02-10T16:35:25.513Z,18.63
2019-02-10T16:37:58.158Z,17.93
2019-02-10T16:40:28.925Z,17.77
2019-02-10T16:43:00.418Z,21.27
2019-02-10T16:45:31.129Z,18.90
2019-02-10T16:51:18.054Z,19.10
2019-02-10T16:56:43.131Z,20.07
2019-02-10T16:59:13.904Z,19.00
2019-02-10T17:01:44.276Z,18.87
2019-02-10T17:04:17.493Z,24.03
2019-02-10T17:07:47.420Z,24.80
2019-02-10T17:10:33.620Z,23.03
2019-02-10T17:13:08.143Z,17.93
2019-02-10T17:15:41.167Z,18.00
2019-02-10T17:18:35.185Z,15.93
2019-02-10T17:21:07.223Z,19.47
2019-02-10T17:23:41.054Z,18.53
2019-02-10T17:26:28.610Z,18.50
2019-02-10T17:29:09.917Z,16.33
2019-02-10T17:31:40.915Z,18.07
2019-02-10T17:37:55.776Z,15.00
2019-02-10T17:43:30.031Z,17.10
2019-02-10T18:02:11.311Z,17.00
2019-02-10T18:08:29.974Z,19.67
2019-02-10T18:11:20.169Z,22.17
2019-02-10T18:13:53.735Z,18.10
2019-02-10T18:16:42.919Z,18.97
2019-02-10T18:19:35.010Z,23.57
2019-02-10T18:22:39.741Z,21.97
2019-02-10T18:25:37.977Z,21.63
2019-02-10T18:52:45.819Z,20.27
2019-02-10T19:35:48.108Z,24.73
2019-02-10T19:38:55.435Z,29.47
2019-02-10T19:41:31.791Z,34.30
2019-02-10T19:44:36.611Z,31.57
2019-02-10T19:47:24.823Z,32.43
2019-02-10T19:50:16.890Z,39.53
2019-02-10T19:52:56.088Z,28.80
2019-02-10T19:55:46.982Z,32.37
2019-02-10T19:58:48.608Z,26.03
2019-02-10T20:01:40.327Z,27.83
2019-02-10T20:04:28.424Z,21.63
2019-02-10T20:07:15.147Z,24.23
2019-02-10T20:10:18.973Z,25.03
2019-02-10T20:13:06.851Z,29.07
2019-02-10T20:15:56.108Z,47.93
2019-02-10T20:18:47.983Z,29.43
2019-02-10T20:21:37.340Z,32.77
2019-02-10T20:24:42.076Z,24.53
2019-02-10T20:27:45.039Z,39.10
2019-02-10T20:30:44.176Z,25.77
2019-02-10T20:33:33.472Z,28.73
2019-02-10T20:36:22.024Z,22.63
2019-02-10T20:39:05.827Z,29.47
2019-02-10T20:41:59.184Z,27.27
2019-02-10T20:44:54.412Z,25.40
2019-02-10T20:47:51.919Z,29.23
2019-02-10T20:50:44.167Z,22.83
2019-02-10T20:53:32.145Z,21.47
2019-02-10T20:56:28.239Z,23.27
2019-02-10T20:59:08.704Z,23.90
2019-02-10T21:01:45.248Z,25.70
2019-02-10T21:04:26.632Z,24.30
2019-02-10T21:07:15.135Z,24.10
2019-02-10T21:09:57.727Z,22.57
2019-02-10T21:12:44.709Z,22.97
2019-02-10T21:15:32.915Z,21.97
2019-02-10T21:18:21.203Z,23.30
2019-02-10T21:21:09.132Z,21.10
2019-02-10T21:23:57.639Z,26.97
2019-02-10T21:26:50.000Z,26.33
2019-02-10T21:29:38.382Z,21.67
2019-02-10T21:32:30.616Z,20.67
2019-02-10T21:35:14.860Z,20.47
2019-02-10T21:38:13.499Z,23.27
2019-02-10T21:41:07.744Z,21.90
2019-02-10T21:43:58.188Z,23.43
2019-02-10T21:46:43.939Z,24.93
2019-02-10T21:49:16.180Z,22.00
2019-02-10T21:51:46.540Z,22.03
2019-02-10T21:54:18.344Z,21.23
2019-02-10T21:56:48.041Z,21.03
2019-02-10T21:59:18.295Z,22.13
2019-02-10T22:01:48.004Z,21.97
2019-02-10T22:04:18.728Z,26.10
2019-02-10T22:06:48.427Z,20.83
2019-02-10T22:09:18.675Z,20.53
2019-02-10T22:11:48.454Z,20.20
2019-02-10T22:14:18.723Z,21.43
2019-02-10T22:16:49.071Z,21.67
2019-02-10T22:19:19.423Z,21.57
2019-02-10T22:21:49.149Z,22.97
2019-02-10T22:24:19.403Z,22.47
2019-02-10T22:26:49.200Z,21.40
2019-02-10T22:29:19.451Z,22.60
2019-02-10T22:31:49.146Z,21.80
2019-02-10T22:34:19.471Z,22.17
2019-02-10T22:36:49.163Z,21.30
2019-02-10T22:39:19.489Z,22.80
2019-02-10T22:41:49.183Z,22.03
2019-02-10T22:44:19.198Z,24.77
2019-02-10T22:46:49.727Z,22.87
2019-02-10T22:49:19.562Z,22.33
2019-02-10T22:51:49.239Z,22.17
2019-02-10T22:54:19.516Z,20.43
2019-02-10T22:56:49.863Z,19.63
2019-02-10T22:59:20.239Z,21.87
2019-02-10T23:01:49.928Z,22.67
2019-02-10T23:04:20.179Z,21.37
2019-02-10T23:06:50.528Z,19.43
2019-02-10T23:09:23.786Z,20.57
2019-02-10T23:11:54.168Z,19.77
2019-02-10T23:14:24.515Z,18.60
2019-02-10T23:16:54.891Z,19.53
2019-02-10T23:19:25.227Z,20.77
2019-02-10T23:21:55.579Z,18.87
2019-02-10T23:24:25.267Z,21.43
2019-02-10T23:26:55.543Z,21.67
2019-02-10T23:29:26.328Z,21.07
2019-02-10T23:31:56.579Z,20.27
2019-02-10T23:34:27.227Z,19.93
2019-02-10T23:36:57.856Z,17.87
2019-02-10T23:39:29.267Z,17.87
2019-02-10T23:41:59.607Z,18.70
2019-02-10T23:44:30.483Z,18.63
2019-02-10T23:47:01.799Z,18.47
2019-02-10T23:49:32.155Z,23.73
2019-02-10T23:52:02.512Z,19.30
2019-02-10T23:54:32.940Z,16.43
2019-02-10T23:57:03.295Z,18.30
2019-02-10T23:59:33.631Z,16.63
